CheckWX is a tool to help pilots better visualize weather data.  It is not intended as a substitute for an official pre-flight weather briefing.

07:24:12 UTC

LEVC TAF
Valencia Airport
Valencia, Spain
TAF LEVC 160500Z 1606/1706 31005KT 9999 FEW025 TX26/1612Z TN17/1606Z BECMG 1608/1610 09010KT BECMG 1618/1621 VRB03KT

Jun-16@
06:00 UTC

Jun-16 @ 06:00 UTC

Jun-16@
08:00 UTC

Jun-16 @ 08:00 UTC

TAF LEVC 160500Z 1606/1706 31005KT 9999 FEW025 TX26/1612Z TN17/1606Z
Wind
  • 310° at 5 KTS
Cloud Levels
  • Few at 2,500' AGL

Jun-16@
08:00 UTC

Jun-16 @ 08:00 UTC

Jun-16@
18:00 UTC

Jun-16 @ 18:00 UTC

BECMG 1608/1610 09010KT

Becoming

Becoming Conditions expected by Sun, Jun 16, 2019 @ 10:00 UTC

Wind
  • 090° at 10 KTS
Cloud Levels
  • Few at 2,500' AGL

Jun-16@
18:00 UTC

Jun-16 @ 18:00 UTC

Jun-17@
06:00 UTC

Jun-17 @ 06:00 UTC

BECMG 1618/1621 VRB03KT

Becoming

Becoming Conditions expected by Sun, Jun 16, 2019 @ 21:00 UTC

Wind
  • Variable at 3 KTS
Cloud Levels
  • Few at 2,500' AGL